sensor_id;sensor_type;location;lat;lon;timestamp;P1;durP1;ratioP1;P2;durP2;ratioP2
3405;SDS011;10008;48.682;9.016;2023-07-16T00:01:32;8.00;;;7.30;;
3405;SDS011;10008;48.682;9.016;2023-07-16T00:03:58;8.13;;;7.43;;
3405;SDS011;10008;48.682;9.016;2023-07-16T00:06:24;7.93;;;7.23;;
3405;SDS011;10008;48.682;9.016;2023-07-16T00:08:49;8.50;;;7.80;;
3405;SDS011;10008;48.682;9.016;2023-07-16T00:11:15;7.80;;;7.10;;
3405;SDS011;10008;48.682;9.016;2023-07-16T00:13:41;8.60;;;7.80;;
3405;SDS011;10008;48.682;9.016;2023-07-16T00:16:11;8.40;;;7.70;;
3405;SDS011;10008;48.682;9.016;2023-07-16T00:18:37;8.20;;;7.50;;
3405;SDS011;10008;48.682;9.016;2023-07-16T00:21:03;8.27;;;7.57;;
3405;SDS011;10008;48.682;9.016;2023-07-16T00:23:28;8.10;;;7.40;;
3405;SDS011;10008;48.682;9.016;2023-07-16T00:25:54;8.10;;;7.40;;
3405;SDS011;10008;48.682;9.016;2023-07-16T00:28:20;8.50;;;7.80;;
3405;SDS011;10008;48.682;9.016;2023-07-16T00:30:45;7.80;;;7.10;;
3405;SDS011;10008;48.682;9.016;2023-07-16T00:33:11;7.70;;;7.10;;
3405;SDS011;10008;48.682;9.016;2023-07-16T00:35:37;7.90;;;7.20;;
3405;SDS011;10008;48.682;9.016;2023-07-16T00:38:03;7.70;;;7.10;;
3405;SDS011;10008;48.682;9.016;2023-07-16T00:40:29;7.60;;;7.00;;
3405;SDS011;10008;48.682;9.016;2023-07-16T00:42:54;8.00;;;7.30;;
3405;SDS011;10008;48.682;9.016;2023-07-16T00:45:20;7.60;;;7.00;;
3405;SDS011;10008;48.682;9.016;2023-07-16T00:47:46;8.10;;;7.40;;
3405;SDS011;10008;48.682;9.016;2023-07-16T00:50:12;8.40;;;7.70;;
3405;SDS011;10008;48.682;9.016;2023-07-16T00:52:38;9.37;;;8.60;;
3405;SDS011;10008;48.682;9.016;2023-07-16T00:55:05;8.20;;;7.50;;
3405;SDS011;10008;48.682;9.016;2023-07-16T01:03:10;8.30;;;7.70;;
3405;SDS011;10008;48.682;9.016;2023-07-16T01:08:32;7.70;;;7.10;;
3405;SDS011;10008;48.682;9.016;2023-07-16T01:11:06;7.97;;;7.37;;
3405;SDS011;10008;48.682;9.016;2023-07-16T01:13:32;8.40;;;7.70;;
3405;SDS011;10008;48.682;9.016;2023-07-16T01:15:59;7.17;;;6.57;;
3405;SDS011;10008;48.682;9.016;2023-07-16T01:18:25;7.40;;;6.80;;
3405;SDS011;10008;48.682;9.016;2023-07-16T01:20:51;7.30;;;6.70;;
3405;SDS011;10008;48.682;9.016;2023-07-16T01:23:27;7.00;;;6.50;;
3405;SDS011;10008;48.682;9.016;2023-07-16T01:31:29;7.00;;;6.50;;
3405;SDS011;10008;48.682;9.016;2023-07-16T01:33:56;6.90;;;6.40;;
3405;SDS011;10008;48.682;9.016;2023-07-16T01:36:24;6.97;;;6.47;;
3405;SDS011;10008;48.682;9.016;2023-07-16T01:38:51;6.83;;;6.33;;
3405;SDS011;10008;48.682;9.016;2023-07-16T01:41:17;6.70;;;6.20;;
3405;SDS011;10008;48.682;9.016;2023-07-16T01:43:43;6.40;;;5.90;;
3405;SDS011;10008;48.682;9.016;2023-07-16T01:46:09;6.60;;;6.00;;
3405;SDS011;10008;48.682;9.016;2023-07-16T01:48:36;6.17;;;5.67;;
3405;SDS011;10008;48.682;9.016;2023-07-16T01:51:02;6.00;;;5.50;;
3405;SDS011;10008;48.682;9.016;2023-07-16T01:53:29;6.10;;;5.60;;
3405;SDS011;10008;48.682;9.016;2023-07-16T01:55:55;6.57;;;5.77;;
3405;SDS011;10008;48.682;9.016;2023-07-16T01:58:21;5.80;;;5.30;;
3405;SDS011;10008;48.682;9.016;2023-07-16T02:00:49;5.60;;;5.13;;
3405;SDS011;10008;48.682;9.016;2023-07-16T02:03:15;6.00;;;5.50;;
3405;SDS011;10008;48.682;9.016;2023-07-16T02:05:41;5.50;;;5.00;;
3405;SDS011;10008;48.682;9.016;2023-07-16T02:08:06;5.70;;;5.20;;
3405;SDS011;10008;48.682;9.016;2023-07-16T02:10:32;6.00;;;5.50;;
3405;SDS011;10008;48.682;9.016;2023-07-16T02:12:58;5.80;;;5.30;;
3405;SDS011;10008;48.682;9.016;2023-07-16T02:15:24;6.47;;;5.97;;
3405;SDS011;10008;48.682;9.016;2023-07-16T02:17:50;6.60;;;6.00;;
3405;SDS011;10008;48.682;9.016;2023-07-16T02:20:16;6.47;;;5.97;;
3405;SDS011;10008;48.682;9.016;2023-07-16T02:22:41;6.20;;;5.70;;
3405;SDS011;10008;48.682;9.016;2023-07-16T02:25:07;6.77;;;6.17;;
3405;SDS011;10008;48.682;9.016;2023-07-16T02:27:33;5.70;;;5.20;;
3405;SDS011;10008;48.682;9.016;2023-07-16T02:29:59;6.30;;;5.80;;
3405;SDS011;10008;48.682;9.016;2023-07-16T02:32:24;6.73;;;6.23;;
3405;SDS011;10008;48.682;9.016;2023-07-16T02:34:50;6.50;;;6.00;;
3405;SDS011;10008;48.682;9.016;2023-07-16T02:37:16;7.07;;;6.50;;
3405;SDS011;10008;48.682;9.016;2023-07-16T02:39:43;6.50;;;6.00;;
3405;SDS011;10008;48.682;9.016;2023-07-16T02:42:10;7.50;;;6.90;;
3405;SDS011;10008;48.682;9.016;2023-07-16T02:44:36;6.90;;;6.40;;
3405;SDS011;10008;48.682;9.016;2023-07-16T02:47:08;6.90;;;6.40;;
3405;SDS011;10008;48.682;9.016;2023-07-16T02:49:34;6.40;;;5.90;;
3405;SDS011;10008;48.682;9.016;2023-07-16T02:51:59;6.10;;;5.60;;
3405;SDS011;10008;48.682;9.016;2023-07-16T02:54:25;6.33;;;5.83;;
3405;SDS011;10008;48.682;9.016;2023-07-16T02:56:51;6.50;;;6.00;;
3405;SDS011;10008;48.682;9.016;2023-07-16T02:59:16;6.10;;;5.60;;
3405;SDS011;10008;48.682;9.016;2023-07-16T03:01:42;6.60;;;6.10;;
3405;SDS011;10008;48.682;9.016;2023-07-16T03:04:08;6.60;;;6.10;;
3405;SDS011;10008;48.682;9.016;2023-07-16T03:06:33;6.00;;;5.50;;
3405;SDS011;10008;48.682;9.016;2023-07-16T03:08:59;6.00;;;5.50;;
3405;SDS011;10008;48.682;9.016;2023-07-16T03:11:25;6.10;;;5.60;;
3405;SDS011;10008;48.682;9.016;2023-07-16T03:13:52;5.50;;;5.10;;
3405;SDS011;10008;48.682;9.016;2023-07-16T03:16:17;5.80;;;5.30;;
3405;SDS011;10008;48.682;9.016;2023-07-16T03:18:44;5.53;;;5.13;;
3405;SDS011;10008;48.682;9.016;2023-07-16T03:21:10;6.30;;;5.80;;
3405;SDS011;10008;48.682;9.016;2023-07-16T03:23:36;5.90;;;5.40;;
3405;SDS011;10008;48.682;9.016;2023-07-16T03:26:02;6.30;;;5.80;;
3405;SDS011;10008;48.682;9.016;2023-07-16T03:28:28;6.40;;;5.90;;
3405;SDS011;10008;48.682;9.016;2023-07-16T03:30:54;5.80;;;5.30;;
3405;SDS011;10008;48.682;9.016;2023-07-16T03:33:19;6.10;;;5.60;;
3405;SDS011;10008;48.682;9.016;2023-07-16T03:35:46;6.10;;;5.60;;
3405;SDS011;10008;48.682;9.016;2023-07-16T03:38:13;6.50;;;6.00;;
3405;SDS011;10008;48.682;9.016;2023-07-16T03:40:42;6.00;;;5.50;;
3405;SDS011;10008;48.682;9.016;2023-07-16T03:43:11;6.00;;;5.50;;
3405;SDS011;10008;48.682;9.016;2023-07-16T03:45:37;5.80;;;5.30;;
3405;SDS011;10008;48.682;9.016;2023-07-16T03:48:03;5.97;;;5.47;;
3405;SDS011;10008;48.682;9.016;2023-07-16T03:50:29;6.00;;;5.50;;
3405;SDS011;10008;48.682;9.016;2023-07-16T03:52:54;5.73;;;5.23;;
3405;SDS011;10008;48.682;9.016;2023-07-16T03:55:20;5.80;;;5.30;;
3405;SDS011;10008;48.682;9.016;2023-07-16T03:57:46;8.73;;;6.33;;
3405;SDS011;10008;48.682;9.016;2023-07-16T04:00:12;6.00;;;5.50;;
3405;SDS011;10008;48.682;9.016;2023-07-16T04:02:45;5.90;;;5.40;;
3405;SDS011;10008;48.682;9.016;2023-07-16T04:05:16;5.83;;;5.33;;
3405;SDS011;10008;48.682;9.016;2023-07-16T04:07:41;6.80;;;6.30;;
3405;SDS011;10008;48.682;9.016;2023-07-16T04:10:07;6.60;;;6.10;;
3405;SDS011;10008;48.682;9.016;2023-07-16T04:12:33;6.10;;;5.60;;
3405;SDS011;10008;48.682;9.016;2023-07-16T04:14:59;6.10;;;5.60;;
3405;SDS011;10008;48.682;9.016;2023-07-16T04:17:25;6.60;;;6.10;;
3405;SDS011;10008;48.682;9.016;2023-07-16T04:19:51;6.00;;;5.50;;
3405;SDS011;10008;48.682;9.016;2023-07-16T04:22:17;6.30;;;5.80;;
3405;SDS011;10008;48.682;9.016;2023-07-16T04:24:42;6.17;;;5.67;;
3405;SDS011;10008;48.682;9.016;2023-07-16T04:27:08;6.43;;;5.93;;
3405;SDS011;10008;48.682;9.016;2023-07-16T04:29:34;6.27;;;5.77;;
3405;SDS011;10008;48.682;9.016;2023-07-16T04:32:00;5.83;;;5.33;;
3405;SDS011;10008;48.682;9.016;2023-07-16T04:34:27;5.60;;;5.10;;
3405;SDS011;10008;48.682;9.016;2023-07-16T04:36:52;5.40;;;5.00;;
3405;SDS011;10008;48.682;9.016;2023-07-16T04:39:18;5.80;;;5.30;;
3405;SDS011;10008;48.682;9.016;2023-07-16T04:41:44;5.90;;;5.40;;
3405;SDS011;10008;48.682;9.016;2023-07-16T04:44:10;5.30;;;4.90;;
3405;SDS011;10008;48.682;9.016;2023-07-16T04:46:35;5.17;;;4.77;;
3405;SDS011;10008;48.682;9.016;2023-07-16T04:49:01;5.30;;;4.90;;
3405;SDS011;10008;48.682;9.016;2023-07-16T04:51:27;5.40;;;5.00;;
3405;SDS011;10008;48.682;9.016;2023-07-16T04:53:53;5.20;;;4.80;;
3405;SDS011;10008;48.682;9.016;2023-07-16T04:56:19;5.00;;;4.60;;
3405;SDS011;10008;48.682;9.016;2023-07-16T04:58:45;4.90;;;4.50;;
3405;SDS011;10008;48.682;9.016;2023-07-16T05:01:11;5.30;;;4.90;;
3405;SDS011;10008;48.682;9.016;2023-07-16T05:03:36;4.93;;;4.53;;
3405;SDS011;10008;48.682;9.016;2023-07-16T05:06:02;4.80;;;4.40;;
3405;SDS011;10008;48.682;9.016;2023-07-16T05:08:28;4.90;;;4.50;;
3405;SDS011;10008;48.682;9.016;2023-07-16T05:10:54;5.00;;;4.60;;
3405;SDS011;10008;48.682;9.016;2023-07-16T05:13:20;5.10;;;4.70;;
3405;SDS011;10008;48.682;9.016;2023-07-16T05:15:46;5.00;;;4.60;;
3405;SDS011;10008;48.682;9.016;2023-07-16T05:18:12;5.47;;;4.97;;
3405;SDS011;10008;48.682;9.016;2023-07-16T05:20:38;5.50;;;5.00;;
3405;SDS011;10008;48.682;9.016;2023-07-16T05:23:04;5.50;;;5.10;;
3405;SDS011;10008;48.682;9.016;2023-07-16T05:25:29;5.37;;;4.97;;
3405;SDS011;10008;48.682;9.016;2023-07-16T05:27:55;5.50;;;5.00;;
3405;SDS011;10008;48.682;9.016;2023-07-16T05:30:21;4.70;;;4.30;;
3405;SDS011;10008;48.682;9.016;2023-07-16T05:32:47;5.77;;;5.27;;
3405;SDS011;10008;48.682;9.016;2023-07-16T05:35:13;5.40;;;5.00;;
3405;SDS011;10008;48.682;9.016;2023-07-16T05:37:39;5.60;;;5.10;;
3405;SDS011;10008;48.682;9.016;2023-07-16T05:40:05;5.50;;;5.10;;
3405;SDS011;10008;48.682;9.016;2023-07-16T05:42:34;5.40;;;5.00;;
3405;SDS011;10008;48.682;9.016;2023-07-16T05:44:59;5.57;;;5.13;;
3405;SDS011;10008;48.682;9.016;2023-07-16T05:47:25;5.97;;;5.47;;
3405;SDS011;10008;48.682;9.016;2023-07-16T05:49:51;5.73;;;5.23;;
3405;SDS011;10008;48.682;9.016;2023-07-16T05:52:17;5.30;;;4.90;;
3405;SDS011;10008;48.682;9.016;2023-07-16T05:54:43;5.40;;;5.00;;
3405;SDS011;10008;48.682;9.016;2023-07-16T05:57:10;6.10;;;5.60;;
3405;SDS011;10008;48.682;9.016;2023-07-16T05:59:36;6.40;;;5.80;;
3405;SDS011;10008;48.682;9.016;2023-07-16T06:02:02;6.10;;;5.60;;
3405;SDS011;10008;48.682;9.016;2023-07-16T06:04:29;5.40;;;5.00;;
3405;SDS011;10008;48.682;9.016;2023-07-16T06:06:56;5.83;;;5.33;;
3405;SDS011;10008;48.682;9.016;2023-07-16T06:09:22;6.00;;;5.50;;
3405;SDS011;10008;48.682;9.016;2023-07-16T06:11:48;6.20;;;5.70;;
3405;SDS011;10008;48.682;9.016;2023-07-16T06:14:14;6.80;;;6.30;;
3405;SDS011;10008;48.682;9.016;2023-07-16T06:16:40;6.20;;;5.70;;
3405;SDS011;10008;48.682;9.016;2023-07-16T06:19:05;6.30;;;5.80;;
3405;SDS011;10008;48.682;9.016;2023-07-16T06:21:31;6.50;;;6.00;;
3405;SDS011;10008;48.682;9.016;2023-07-16T06:23:57;6.10;;;5.60;;
3405;SDS011;10008;48.682;9.016;2023-07-16T06:26:23;6.10;;;5.60;;
3405;SDS011;10008;48.682;9.016;2023-07-16T06:28:49;6.50;;;6.00;;
3405;SDS011;10008;48.682;9.016;2023-07-16T06:31:15;7.40;;;6.80;;
3405;SDS011;10008;48.682;9.016;2023-07-16T06:33:42;6.90;;;6.40;;
3405;SDS011;10008;48.682;9.016;2023-07-16T06:36:08;7.00;;;6.50;;
3405;SDS011;10008;48.682;9.016;2023-07-16T06:38:33;7.83;;;7.23;;
3405;SDS011;10008;48.682;9.016;2023-07-16T06:40:59;7.80;;;7.20;;
3405;SDS011;10008;48.682;9.016;2023-07-16T06:43:25;8.50;;;7.80;;
3405;SDS011;10008;48.682;9.016;2023-07-16T06:45:51;7.60;;;7.00;;
3405;SDS011;10008;48.682;9.016;2023-07-16T06:48:16;8.20;;;7.60;;
3405;SDS011;10008;48.682;9.016;2023-07-16T06:50:43;8.30;;;7.70;;
3405;SDS011;10008;48.682;9.016;2023-07-16T06:53:08;8.20;;;7.60;;
3405;SDS011;10008;48.682;9.016;2023-07-16T06:55:34;8.10;;;7.50;;
3405;SDS011;10008;48.682;9.016;2023-07-16T06:58:00;9.00;;;8.30;;
3405;SDS011;10008;48.682;9.016;2023-07-16T07:00:26;8.90;;;8.20;;
3405;SDS011;10008;48.682;9.016;2023-07-16T07:02:52;9.50;;;8.70;;
3405;SDS011;10008;48.682;9.016;2023-07-16T07:05:18;9.30;;;8.60;;
3405;SDS011;10008;48.682;9.016;2023-07-16T07:07:44;9.90;;;9.10;;
3405;SDS011;10008;48.682;9.016;2023-07-16T07:10:11;10.10;;;9.30;;
3405;SDS011;10008;48.682;9.016;2023-07-16T07:12:37;10.00;;;9.20;;
3405;SDS011;10008;48.682;9.016;2023-07-16T07:15:07;10.70;;;9.80;;
3405;SDS011;10008;48.682;9.016;2023-07-16T07:17:33;11.10;;;10.20;;
3405;SDS011;10008;48.682;9.016;2023-07-16T07:19:59;10.80;;;9.90;;
3405;SDS011;10008;48.682;9.016;2023-07-16T07:22:25;11.33;;;10.43;;
3405;SDS011;10008;48.682;9.016;2023-07-16T07:24:51;11.10;;;10.20;;
3405;SDS011;10008;48.682;9.016;2023-07-16T07:27:17;11.00;;;10.10;;
3405;SDS011;10008;48.682;9.016;2023-07-16T07:29:43;11.47;;;10.50;;
3405;SDS011;10008;48.682;9.016;2023-07-16T07:32:09;12.00;;;11.00;;
3405;SDS011;10008;48.682;9.016;2023-07-16T07:34:34;12.10;;;11.10;;
3405;SDS011;10008;48.682;9.016;2023-07-16T07:37:00;12.80;;;11.70;;
3405;SDS011;10008;48.682;9.016;2023-07-16T07:39:26;12.80;;;11.60;;
3405;SDS011;10008;48.682;9.016;2023-07-16T07:41:52;12.27;;;11.27;;
3405;SDS011;10008;48.682;9.016;2023-07-16T07:44:17;12.37;;;11.27;;
3405;SDS011;10008;48.682;9.016;2023-07-16T07:46:43;11.90;;;10.90;;
3405;SDS011;10008;48.682;9.016;2023-07-16T07:49:09;12.30;;;11.30;;
3405;SDS011;10008;48.682;9.016;2023-07-16T07:51:34;11.83;;;10.83;;
3405;SDS011;10008;48.682;9.016;2023-07-16T07:54:00;12.63;;;11.53;;
3405;SDS011;10008;48.682;9.016;2023-07-16T07:56:26;12.43;;;11.40;;
3405;SDS011;10008;48.682;9.016;2023-07-16T07:58:52;12.13;;;11.13;;
3405;SDS011;10008;48.682;9.016;2023-07-16T08:01:18;12.27;;;11.27;;
3405;SDS011;10008;48.682;9.016;2023-07-16T08:03:43;12.43;;;11.43;;
3405;SDS011;10008;48.682;9.016;2023-07-16T08:06:09;12.60;;;11.50;;
3405;SDS011;10008;48.682;9.016;2023-07-16T08:08:37;12.27;;;11.20;;
3405;SDS011;10008;48.682;9.016;2023-07-16T08:11:02;12.10;;;11.10;;
3405;SDS011;10008;48.682;9.016;2023-07-16T08:13:28;12.50;;;11.50;;
3405;SDS011;10008;48.682;9.016;2023-07-16T08:15:54;12.23;;;11.13;;
3405;SDS011;10008;48.682;9.016;2023-07-16T08:18:19;12.40;;;11.30;;
3405;SDS011;10008;48.682;9.016;2023-07-16T08:20:46;12.17;;;11.17;;
3405;SDS011;10008;48.682;9.016;2023-07-16T08:23:12;12.53;;;11.43;;
3405;SDS011;10008;48.682;9.016;2023-07-16T08:25:38;13.17;;;12.00;;
3405;SDS011;10008;48.682;9.016;2023-07-16T08:28:04;12.40;;;11.40;;
3405;SDS011;10008;48.682;9.016;2023-07-16T08:30:29;12.03;;;11.03;;
3405;SDS011;10008;48.682;9.016;2023-07-16T08:32:57;12.73;;;11.53;;
3405;SDS011;10008;48.682;9.016;2023-07-16T08:35:22;12.00;;;11.00;;
3405;SDS011;10008;48.682;9.016;2023-07-16T08:37:48;12.50;;;11.50;;
3405;SDS011;10008;48.682;9.016;2023-07-16T08:40:14;12.47;;;11.47;;
3405;SDS011;10008;48.682;9.016;2023-07-16T08:42:40;13.03;;;11.77;;
3405;SDS011;10008;48.682;9.016;2023-07-16T08:45:09;12.57;;;11.47;;
3405;SDS011;10008;48.682;9.016;2023-07-16T08:47:36;12.53;;;11.50;;
3405;SDS011;10008;48.682;9.016;2023-07-16T08:50:02;12.07;;;11.07;;
3405;SDS011;10008;48.682;9.016;2023-07-16T08:52:29;12.47;;;11.47;;
3405;SDS011;10008;48.682;9.016;2023-07-16T08:54:55;12.43;;;11.43;;
3405;SDS011;10008;48.682;9.016;2023-07-16T08:57:21;12.20;;;11.20;;
3405;SDS011;10008;48.682;9.016;2023-07-16T08:59:48;13.00;;;11.90;;
3405;SDS011;10008;48.682;9.016;2023-07-16T09:02:18;12.97;;;11.80;;
3405;SDS011;10008;48.682;9.016;2023-07-16T09:04:48;13.30;;;12.20;;
3405;SDS011;10008;48.682;9.016;2023-07-16T09:07:16;13.50;;;12.40;;
3405;SDS011;10008;48.682;9.016;2023-07-16T09:09:42;13.90;;;12.70;;
3405;SDS011;10008;48.682;9.016;2023-07-16T09:12:13;13.60;;;12.40;;
3405;SDS011;10008;48.682;9.016;2023-07-16T09:14:42;13.90;;;12.60;;
3405;SDS011;10008;48.682;9.016;2023-07-16T09:17:09;14.00;;;12.80;;
3405;SDS011;10008;48.682;9.016;2023-07-16T09:19:35;13.97;;;12.77;;
3405;SDS011;10008;48.682;9.016;2023-07-16T09:22:01;13.73;;;12.53;;
3405;SDS011;10008;48.682;9.016;2023-07-16T09:24:28;13.73;;;12.60;;
3405;SDS011;10008;48.682;9.016;2023-07-16T09:26:54;13.50;;;12.40;;
3405;SDS011;10008;48.682;9.016;2023-07-16T09:29:24;13.70;;;12.50;;
3405;SDS011;10008;48.682;9.016;2023-07-16T09:31:55;13.30;;;12.20;;
3405;SDS011;10008;48.682;9.016;2023-07-16T09:34:28;13.90;;;12.80;;
3405;SDS011;10008;48.682;9.016;2023-07-16T09:36:58;13.10;;;12.00;;
3405;SDS011;10008;48.682;9.016;2023-07-16T09:39:25;13.50;;;12.40;;
3405;SDS011;10008;48.682;9.016;2023-07-16T09:41:52;13.13;;;12.03;;
3405;SDS011;10008;48.682;9.016;2023-07-16T09:44:19;13.30;;;12.10;;
3405;SDS011;10008;48.682;9.016;2023-07-16T09:46:45;13.40;;;12.30;;
3405;SDS011;10008;48.682;9.016;2023-07-16T09:49:11;12.87;;;11.77;;
3405;SDS011;10008;48.682;9.016;2023-07-16T09:51:39;12.67;;;11.67;;
3405;SDS011;10008;48.682;9.016;2023-07-16T09:54:05;12.53;;;11.53;;
3405;SDS011;10008;48.682;9.016;2023-07-16T09:56:39;12.47;;;11.47;;
3405;SDS011;10008;48.682;9.016;2023-07-16T09:59:22;12.90;;;11.80;;
3405;SDS011;10008;48.682;9.016;2023-07-16T10:01:50;12.70;;;11.70;;
3405;SDS011;10008;48.682;9.016;2023-07-16T10:04:19;13.10;;;12.10;;
3405;SDS011;10008;48.682;9.016;2023-07-16T10:12:15;13.47;;;12.37;;
3405;SDS011;10008;48.682;9.016;2023-07-16T10:14:44;13.10;;;12.00;;
3405;SDS011;10008;48.682;9.016;2023-07-16T10:17:12;12.60;;;11.60;;
3405;SDS011;10008;48.682;9.016;2023-07-16T10:20:06;13.30;;;12.20;;
3405;SDS011;10008;48.682;9.016;2023-07-16T10:22:42;13.40;;;12.30;;
3405;SDS011;10008;48.682;9.016;2023-07-16T10:27:43;13.70;;;12.60;;
3405;SDS011;10008;48.682;9.016;2023-07-16T10:30:10;14.13;;;12.93;;
3405;SDS011;10008;48.682;9.016;2023-07-16T10:32:36;13.57;;;12.37;;
3405;SDS011;10008;48.682;9.016;2023-07-16T10:35:03;13.27;;;12.13;;
3405;SDS011;10008;48.682;9.016;2023-07-16T10:37:31;13.00;;;11.90;;
3405;SDS011;10008;48.682;9.016;2023-07-16T10:39:57;13.27;;;12.17;;
3405;SDS011;10008;48.682;9.016;2023-07-16T10:42:24;14.40;;;13.20;;
3405;SDS011;10008;48.682;9.016;2023-07-16T10:44:53;14.50;;;13.30;;
3405;SDS011;10008;48.682;9.016;2023-07-16T10:49:51;14.20;;;12.20;;
3405;SDS011;10008;48.682;9.016;2023-07-16T10:52:17;13.30;;;12.20;;
3405;SDS011;10008;48.682;9.016;2023-07-16T10:54:43;13.20;;;12.10;;
3405;SDS011;10008;48.682;9.016;2023-07-16T10:57:10;13.57;;;12.47;;
3405;SDS011;10008;48.682;9.016;2023-07-16T10:59:40;13.40;;;12.30;;
3405;SDS011;10008;48.682;9.016;2023-07-16T11:02:10;14.20;;;13.00;;
3405;SDS011;10008;48.682;9.016;2023-07-16T11:04:37;13.73;;;12.63;;
3405;SDS011;10008;48.682;9.016;2023-07-16T11:07:04;13.53;;;12.23;;
3405;SDS011;10008;48.682;9.016;2023-07-16T11:09:42;13.00;;;11.90;;
3405;SDS011;10008;48.682;9.016;2023-07-16T11:12:12;13.73;;;12.60;;
3405;SDS011;10008;48.682;9.016;2023-07-16T11:14:49;13.93;;;12.73;;
3405;SDS011;10008;48.682;9.016;2023-07-16T11:17:16;13.87;;;12.67;;
3405;SDS011;10008;48.682;9.016;2023-07-16T11:19:49;13.27;;;12.17;;
3405;SDS011;10008;48.682;9.016;2023-07-16T11:22:17;13.27;;;12.17;;
3405;SDS011;10008;48.682;9.016;2023-07-16T11:24:47;14.10;;;12.83;;
3405;SDS011;10008;48.682;9.016;2023-07-16T11:27:17;13.20;;;12.10;;
3405;SDS011;10008;48.682;9.016;2023-07-16T11:34:55;14.10;;;13.00;;
3405;SDS011;10008;48.682;9.016;2023-07-16T11:37:21;13.70;;;12.60;;
3405;SDS011;10008;48.682;9.016;2023-07-16T11:39:49;13.67;;;12.47;;
3405;SDS011;10008;48.682;9.016;2023-07-16T11:42:17;13.40;;;12.30;;
3405;SDS011;10008;48.682;9.016;2023-07-16T11:44:58;12.90;;;11.83;;
3405;SDS011;10008;48.682;9.016;2023-07-16T11:47:25;13.40;;;12.20;;
3405;SDS011;10008;48.682;9.016;2023-07-16T11:49:51;13.07;;;11.97;;
3405;SDS011;10008;48.682;9.016;2023-07-16T11:52:23;13.27;;;12.17;;
3405;SDS011;10008;48.682;9.016;2023-07-16T11:54:51;13.30;;;12.20;;
3405;SDS011;10008;48.682;9.016;2023-07-16T11:57:17;13.50;;;12.40;;
3405;SDS011;10008;48.682;9.016;2023-07-16T11:59:43;13.87;;;12.77;;
3405;SDS011;10008;48.682;9.016;2023-07-16T12:02:09;13.57;;;12.47;;
3405;SDS011;10008;48.682;9.016;2023-07-16T12:04:35;14.17;;;13.07;;
3405;SDS011;10008;48.682;9.016;2023-07-16T12:07:01;14.40;;;13.20;;
3405;SDS011;10008;48.682;9.016;2023-07-16T12:09:26;13.40;;;12.30;;
3405;SDS011;10008;48.682;9.016;2023-07-16T12:11:52;13.93;;;12.83;;
3405;SDS011;10008;48.682;9.016;2023-07-16T12:14:19;14.50;;;13.30;;
3405;SDS011;10008;48.682;9.016;2023-07-16T12:16:45;13.50;;;12.30;;
3405;SDS011;10008;48.682;9.016;2023-07-16T12:19:11;13.30;;;12.20;;
3405;SDS011;10008;48.682;9.016;2023-07-16T12:21:37;13.00;;;11.90;;
3405;SDS011;10008;48.682;9.016;2023-07-16T12:24:02;13.50;;;12.40;;
3405;SDS011;10008;48.682;9.016;2023-07-16T12:26:28;13.40;;;12.30;;
3405;SDS011;10008;48.682;9.016;2023-07-16T12:28:54;13.57;;;12.47;;
3405;SDS011;10008;48.682;9.016;2023-07-16T12:31:20;13.60;;;12.50;;
3405;SDS011;10008;48.682;9.016;2023-07-16T12:33:46;13.40;;;12.30;;
3405;SDS011;10008;48.682;9.016;2023-07-16T12:36:13;13.30;;;12.20;;
3405;SDS011;10008;48.682;9.016;2023-07-16T12:38:39;14.03;;;12.93;;
3405;SDS011;10008;48.682;9.016;2023-07-16T12:41:05;13.10;;;12.00;;
3405;SDS011;10008;48.682;9.016;2023-07-16T12:43:31;14.33;;;13.17;;
3405;SDS011;10008;48.682;9.016;2023-07-16T12:46:02;13.90;;;12.80;;
3405;SDS011;10008;48.682;9.016;2023-07-16T12:48:32;13.80;;;12.70;;
3405;SDS011;10008;48.682;9.016;2023-07-16T12:50:57;13.60;;;12.50;;
3405;SDS011;10008;48.682;9.016;2023-07-16T12:53:24;13.80;;;12.70;;
3405;SDS011;10008;48.682;9.016;2023-07-16T12:55:50;13.90;;;12.80;;
3405;SDS011;10008;48.682;9.016;2023-07-16T12:58:16;13.97;;;12.80;;
3405;SDS011;10008;48.682;9.016;2023-07-16T13:00:41;13.33;;;12.23;;
3405;SDS011;10008;48.682;9.016;2023-07-16T13:03:07;13.97;;;12.77;;
3405;SDS011;10008;48.682;9.016;2023-07-16T13:05:37;14.87;;;13.57;;
3405;SDS011;10008;48.682;9.016;2023-07-16T13:08:03;13.70;;;12.60;;
3405;SDS011;10008;48.682;9.016;2023-07-16T13:10:29;13.70;;;12.60;;
3405;SDS011;10008;48.682;9.016;2023-07-16T13:12:55;13.77;;;12.67;;
3405;SDS011;10008;48.682;9.016;2023-07-16T13:15:21;13.70;;;12.53;;
3405;SDS011;10008;48.682;9.016;2023-07-16T13:17:47;14.53;;;13.27;;
3405;SDS011;10008;48.682;9.016;2023-07-16T13:20:15;13.27;;;12.17;;
3405;SDS011;10008;48.682;9.016;2023-07-16T13:22:42;12.87;;;11.77;;
3405;SDS011;10008;48.682;9.016;2023-07-16T13:25:08;13.10;;;12.00;;
3405;SDS011;10008;48.682;9.016;2023-07-16T13:27:34;13.73;;;12.53;;
3405;SDS011;10008;48.682;9.016;2023-07-16T13:30:00;14.20;;;13.00;;
3405;SDS011;10008;48.682;9.016;2023-07-16T13:32:26;13.20;;;12.10;;
3405;SDS011;10008;48.682;9.016;2023-07-16T13:34:51;12.80;;;11.70;;
3405;SDS011;10008;48.682;9.016;2023-07-16T13:37:19;13.63;;;12.43;;
3405;SDS011;10008;48.682;9.016;2023-07-16T13:39:44;13.33;;;12.23;;
3405;SDS011;10008;48.682;9.016;2023-07-16T13:42:10;13.10;;;12.00;;
3405;SDS011;10008;48.682;9.016;2023-07-16T13:44:36;12.90;;;11.80;;
3405;SDS011;10008;48.682;9.016;2023-07-16T13:47:02;13.20;;;12.10;;
3405;SDS011;10008;48.682;9.016;2023-07-16T13:49:29;13.20;;;12.10;;
3405;SDS011;10008;48.682;9.016;2023-07-16T13:51:55;13.63;;;12.43;;
3405;SDS011;10008;48.682;9.016;2023-07-16T13:54:21;13.13;;;12.03;;
3405;SDS011;10008;48.682;9.016;2023-07-16T13:56:47;13.20;;;12.10;;
3405;SDS011;10008;48.682;9.016;2023-07-16T13:59:13;13.80;;;12.63;;
3405;SDS011;10008;48.682;9.016;2023-07-16T14:01:39;13.10;;;12.00;;
3405;SDS011;10008;48.682;9.016;2023-07-16T14:04:05;12.70;;;11.60;;
3405;SDS011;10008;48.682;9.016;2023-07-16T14:06:31;13.47;;;12.37;;
3405;SDS011;10008;48.682;9.016;2023-07-16T14:08:57;14.07;;;12.97;;
3405;SDS011;10008;48.682;9.016;2023-07-16T14:11:24;12.87;;;11.80;;
3405;SDS011;10008;48.682;9.016;2023-07-16T14:13:49;15.67;;;13.97;;
3405;SDS011;10008;48.682;9.016;2023-07-16T14:16:20;13.30;;;12.20;;
3405;SDS011;10008;48.682;9.016;2023-07-16T14:18:49;13.60;;;12.50;;
3405;SDS011;10008;48.682;9.016;2023-07-16T14:21:16;13.27;;;12.17;;
3405;SDS011;10008;48.682;9.016;2023-07-16T14:23:42;13.07;;;11.97;;
3405;SDS011;10008;48.682;9.016;2023-07-16T14:26:08;13.50;;;12.40;;
3405;SDS011;10008;48.682;9.016;2023-07-16T14:28:34;14.07;;;12.87;;
3405;SDS011;10008;48.682;9.016;2023-07-16T14:31:00;14.67;;;13.43;;
3405;SDS011;10008;48.682;9.016;2023-07-16T14:33:25;13.23;;;12.13;;
3405;SDS011;10008;48.682;9.016;2023-07-16T14:35:52;13.40;;;12.30;;
3405;SDS011;10008;48.682;9.016;2023-07-16T14:38:18;13.70;;;12.60;;
3405;SDS011;10008;48.682;9.016;2023-07-16T14:40:44;13.50;;;12.40;;
3405;SDS011;10008;48.682;9.016;2023-07-16T14:43:11;13.37;;;12.27;;
3405;SDS011;10008;48.682;9.016;2023-07-16T14:45:37;13.90;;;12.80;;
3405;SDS011;10008;48.682;9.016;2023-07-16T14:48:03;13.23;;;12.13;;
3405;SDS011;10008;48.682;9.016;2023-07-16T14:50:29;12.50;;;11.50;;
3405;SDS011;10008;48.682;9.016;2023-07-16T14:52:56;15.80;;;12.57;;
3405;SDS011;10008;48.682;9.016;2023-07-16T14:55:21;13.30;;;12.10;;
3405;SDS011;10008;48.682;9.016;2023-07-16T14:57:50;13.30;;;12.20;;
3405;SDS011;10008;48.682;9.016;2023-07-16T15:00:16;13.50;;;12.40;;
3405;SDS011;10008;48.682;9.016;2023-07-16T15:02:42;14.00;;;12.90;;
3405;SDS011;10008;48.682;9.016;2023-07-16T15:05:08;13.17;;;12.10;;
3405;SDS011;10008;48.682;9.016;2023-07-16T15:07:34;13.20;;;12.10;;
3405;SDS011;10008;48.682;9.016;2023-07-16T15:10:01;14.00;;;12.80;;
3405;SDS011;10008;48.682;9.016;2023-07-16T15:12:28;13.87;;;12.77;;
3405;SDS011;10008;48.682;9.016;2023-07-16T15:14:54;13.57;;;12.43;;